Beverly Manor, Illinois
Current Conditions -  °F | °C
As of 7:54 AM on Thursday 29 Jan 2015 (Local Time) from KPIA Reporting Station
Haze Haze  
Wind Chill: 28°   Ceiling: 1400
Heat Index: 37°   Visibility: 5mi
Dew Point: 30°   Wind: 16mph
Humidity: 76%   Direction: 310°NW
Pressure: 29.93"   Gusts: 26mph
Location:  40.703°N, 89.4173°W
Report Text: KPIA 291354Z 31014G23KT 5SM HZ OVC014 03/M01 A2993 RMK AO2 SLP138 T00281011
Loading
Personal Weather Stations






























Interactive Weather Map New forecast layout! Learn more

10-Day Weather Forecast

Advertisements
Track Severe Weather on mobile